Time,TemperatureF,DewpointF,PressureIn,WindDirection,WindDirectionDegrees,WindSpeedMPH,WindSpeedGustMPH,Humidity,HourlyPrecipIn,Conditions,Clouds,dailyrainin,SoftwareType,DateUTC
2013-09-11 00:14:00,73.0,70.0,30.10,WSW,248,0.0,0.0,90,0.00,,,0.00,,2013-09-11 04:14:00,
2013-09-11 00:24:00,73.0,70.0,30.10,WSW,248,0.0,0.0,91,0.00,,,0.00,,2013-09-11 04:24:00,
2013-09-11 00:44:00,73.0,70.0,30.10,WSW,248,0.0,0.0,91,0.00,,,0.00,,2013-09-11 04:44:00,
2013-09-11 00:54:00,73.0,70.0,30.10,WSW,248,0.0,0.0,91,0.00,,,0.00,,2013-09-11 04:54:00,
2013-09-11 01:13:00,74.0,71.0,30.10,WSW,248,0.0,0.0,89,0.00,,,0.00,,2013-09-11 05:13:00,
2013-09-11 01:23:00,75.0,71.0,30.10,WSW,248,0.0,0.0,86,0.00,,,0.00,,2013-09-11 05:23:00,
2013-09-11 01:42:00,76.0,70.0,30.10,WSW,248,0.0,0.0,83,0.00,,,0.00,,2013-09-11 05:42:00,
2013-09-11 01:53:00,76.0,70.0,30.10,WSW,248,0.0,0.0,82,0.00,,,0.00,,2013-09-11 05:53:00,
2013-09-11 02:12:00,75.0,70.0,30.09,WSW,248,0.0,0.0,84,0.00,,,0.00,,2013-09-11 06:12:00,
2013-09-11 02:22:00,74.0,69.0,30.09,WSW,248,0.0,0.0,85,0.00,,,0.00,,2013-09-11 06:22:00,
2013-09-11 02:42:00,74.0,70.0,30.09,WSW,248,0.0,0.0,87,0.00,,,0.00,,2013-09-11 06:42:00,
2013-09-11 02:52:00,74.0,70.0,30.08,WSW,248,0.0,0.0,88,0.00,,,0.00,,2013-09-11 06:52:00,
2013-09-11 03:12:00,74.0,70.0,30.08,WSW,248,0.0,0.0,88,0.00,,,0.00,,2013-09-11 07:12:00,
2013-09-11 03:24:00,74.0,71.0,30.08,WSW,248,0.0,0.0,89,0.00,,,0.00,,2013-09-11 07:24:00,
2013-09-11 03:42:00,73.0,70.0,30.08,WSW,248,0.0,0.0,89,0.00,,,0.00,,2013-09-11 07:42:00,
2013-09-11 03:52:00,73.0,69.0,30.08,WSW,248,0.0,0.0,88,0.00,,,0.00,,2013-09-11 07:52:00,
2013-09-11 04:12:00,73.0,70.0,30.07,WSW,248,0.0,0.0,89,0.00,,,0.00,,2013-09-11 08:12:00,
2013-09-11 04:22:00,73.0,70.0,30.07,WSW,248,0.0,0.0,89,0.00,,,0.00,,2013-09-11 08:22:00,
2013-09-11 04:42:00,72.0,69.0,30.07,WSW,248,0.0,0.0,90,0.00,,,0.00,,2013-09-11 08:42:00,
2013-09-11 04:52:00,72.0,69.0,30.07,WSW,248,0.0,0.0,90,0.00,,,0.00,,2013-09-11 08:52:00,
2013-09-11 05:12:00,72.0,69.0,30.07,WSW,248,0.0,0.0,91,0.00,,,0.00,,2013-09-11 09:12:00,
2013-09-11 05:22:00,71.0,68.0,30.07,WSW,248,0.0,0.0,91,0.00,,,0.00,,2013-09-11 09:22:00,
2013-09-11 05:43:00,71.0,69.0,30.08,WSW,248,0.0,0.0,92,0.00,,,0.00,,2013-09-11 09:43:00,
2013-09-11 05:53:00,71.0,69.0,30.08,WSW,248,0.0,0.0,92,0.00,,,0.00,,2013-09-11 09:53:00,
2013-09-11 06:13:00,71.0,69.0,30.09,WSW,248,0.0,0.0,92,0.00,,,0.00,,2013-09-11 10:13:00,
2013-09-11 06:23:00,71.0,69.0,30.09,WSW,248,0.0,0.0,92,0.00,,,0.00,,2013-09-11 10:23:00,
2013-09-11 06:43:00,70.0,68.0,30.09,WSW,248,0.0,0.0,93,0.00,,,0.00,,2013-09-11 10:43:00,
2013-09-11 06:53:00,70.0,68.0,30.10,WSW,248,0.0,0.0,93,0.00,,,0.00,,2013-09-11 10:53:00,
2013-09-11 07:12:00,70.0,68.0,30.11,WSW,248,0.0,0.0,93,0.00,,,0.00,,2013-09-11 11:12:00,
2013-09-11 07:22:00,70.0,68.0,30.11,WSW,248,0.0,0.0,93,0.00,,,0.00,,2013-09-11 11:22:00,
2013-09-11 07:52:00,70.0,68.0,30.12,WSW,248,0.0,0.0,94,0.00,,,0.00,,2013-09-11 11:52:00,
2013-09-11 08:11:00,71.0,69.0,30.12,WSW,248,0.0,0.0,94,0.00,,,0.00,,2013-09-11 12:11:00,
2013-09-11 08:21:00,71.0,69.0,30.12,WSW,248,0.0,0.0,94,0.00,,,0.00,,2013-09-11 12:21:00,
2013-09-11 08:52:00,73.0,71.0,30.12,WSW,248,0.0,0.0,93,0.00,,,0.00,,2013-09-11 12:52:00,
2013-09-11 09:12:00,74.0,72.0,30.12,WSW,248,0.0,0.0,92,0.00,,,0.00,,2013-09-11 13:12:00,
2013-09-11 09:22:00,76.0,73.0,30.12,WSW,248,0.0,0.0,89,0.00,,,0.00,,2013-09-11 13:22:00,
2013-09-11 09:42:00,79.0,73.0,30.12,WSW,248,0.0,0.0,83,0.00,,,0.00,,2013-09-11 13:42:00,
2013-09-11 09:52:00,80.0,72.0,30.12,WSW,248,0.0,0.0,78,0.00,,,0.00,,2013-09-11 13:52:00,
2013-09-11 10:11:00,83.0,73.0,30.11,WSW,248,0.0,0.0,72,0.00,,,0.00,,2013-09-11 14:11:00,
2013-09-11 10:22:00,83.0,72.0,30.11,WSW,248,0.0,0.0,70,0.00,,,0.00,,2013-09-11 14:22:00,
2013-09-11 10:42:00,85.0,72.0,30.11,WSW,248,0.0,0.0,65,0.00,,,0.00,,2013-09-11 14:42:00,
2013-09-11 10:52:00,86.0,73.0,30.11,WSW,248,0.0,0.0,65,0.00,,,0.00,,2013-09-11 14:52:00,
2013-09-11 11:11:00,88.0,74.0,30.10,WSW,248,0.0,0.0,64,0.00,,,0.00,,2013-09-11 15:11:00,
2013-09-11 11:22:00,88.0,73.0,30.10,WSW,248,0.0,0.0,61,0.00,,,0.00,,2013-09-11 15:22:00,
2013-09-11 11:43:00,88.0,74.0,30.10,WSW,248,0.0,0.0,63,0.00,,,0.00,,2013-09-11 15:43:00,
2013-09-11 11:54:00,89.0,75.0,30.09,WSW,248,0.0,0.0,63,0.00,,,0.00,,2013-09-11 15:54:00,
2013-09-11 12:13:00,90.0,73.0,30.09,WSW,248,0.0,0.0,58,0.00,,,0.00,,2013-09-11 16:13:00,
2013-09-11 12:23:00,91.0,73.0,30.09,WSW,248,0.0,0.0,56,0.00,,,0.00,,2013-09-11 16:23:00,
2013-09-11 12:53:00,92.0,72.0,30.08,WSW,248,0.0,0.0,52,0.00,,,0.00,,2013-09-11 16:53:00,
2013-09-11 13:12:00,92.0,71.0,30.07,WSW,248,0.0,0.0,51,0.00,,,0.00,,2013-09-11 17:12:00,
2013-09-11 13:23:00,93.0,72.0,30.07,WSW,248,0.0,0.0,51,0.00,,,0.00,,2013-09-11 17:23:00,
2013-09-11 13:52:00,93.0,72.0,30.06,WSW,248,0.0,0.0,51,0.00,,,0.00,,2013-09-11 17:52:00,
2013-09-11 14:12:00,93.0,71.0,30.05,SW,236,0.0,0.0,49,0.00,,,0.00,,2013-09-11 18:12:00,
2013-09-11 14:22:00,94.0,71.0,30.05,SW,236,0.0,0.0,47,0.00,,,0.00,,2013-09-11 18:22:00,
2013-09-11 14:52:00,93.0,70.0,30.03,South,177,0.0,0.0,47,0.00,,,0.00,,2013-09-11 18:52:00,
2013-09-11 15:12:00,93.0,71.0,30.03,WNW,295,0.0,0.0,49,0.00,,,0.00,,2013-09-11 19:12:00,
2013-09-11 15:22:00,93.0,71.0,30.03,WNW,295,0.0,0.0,49,0.00,,,0.00,,2013-09-11 19:22:00,
2013-09-11 15:42:00,93.0,72.0,30.02,WNW,295,0.0,0.0,50,0.00,,,0.00,,2013-09-11 19:42:00,
2013-09-11 15:52:00,93.0,71.0,30.01,WNW,295,0.0,0.0,49,0.00,,,0.00,,2013-09-11 19:52:00,
2013-09-11 16:12:00,93.0,71.0,30.01,WNW,295,0.0,0.0,49,0.00,,,0.00,,2013-09-11 20:12:00,
2013-09-11 16:22:00,93.0,70.0,30.01,WNW,295,0.0,0.0,48,0.00,,,0.00,,2013-09-11 20:22:00,
2013-09-11 16:42:00,93.0,71.0,30.00,WNW,295,0.0,0.0,49,0.00,,,0.00,,2013-09-11 20:42:00,
2013-09-11 16:52:00,93.0,71.0,29.99,WNW,295,0.0,0.0,49,0.00,,,0.00,,2013-09-11 20:52:00,
2013-09-11 17:12:00,92.0,72.0,29.99,WNW,295,0.0,0.0,52,0.00,,,0.00,,2013-09-11 21:12:00,
2013-09-11 17:22:00,92.0,71.0,29.98,WNW,295,0.0,0.0,51,0.00,,,0.00,,2013-09-11 21:22:00,
2013-09-11 17:44:00,91.0,70.0,29.99,WNW,295,0.0,0.0,51,0.00,,,0.00,,2013-09-11 21:44:00,
2013-09-11 17:54:00,91.0,70.0,29.98,WNW,295,0.0,0.0,51,0.00,,,0.00,,2013-09-11 21:54:00,
2013-09-11 18:13:00,91.0,71.0,29.99,WNW,295,0.0,0.0,53,0.00,,,0.00,,2013-09-11 22:13:00,
2013-09-11 18:24:00,90.0,71.0,30.00,WNW,295,0.0,0.0,53,0.00,,,0.00,,2013-09-11 22:24:00,
2013-09-11 18:54:00,88.0,71.0,30.00,WNW,295,0.0,0.0,57,0.00,,,0.00,,2013-09-11 22:54:00,
2013-09-11 19:12:00,87.0,71.0,30.01,WNW,295,0.0,0.0,60,0.00,,,0.00,,2013-09-11 23:12:00,
2013-09-11 19:22:00,86.0,71.0,30.02,WNW,295,0.0,0.0,61,0.00,,,0.00,,2013-09-11 23:22:00,
2013-09-11 19:53:00,85.0,71.0,30.02,WNW,295,0.0,0.0,64,0.00,,,0.00,,2013-09-11 23:53:00,
2013-09-11 20:11:00,84.0,71.0,30.02,WNW,295,0.0,0.0,65,0.00,,,0.00,,2013-09-12 00:11:00,
2013-09-11 20:22:00,84.0,71.0,30.02,WNW,295,0.0,0.0,66,0.00,,,0.00,,2013-09-12 00:22:00,
2013-09-11 20:42:00,83.0,71.0,30.03,WNW,295,0.0,0.0,67,0.00,,,0.00,,2013-09-12 00:42:00,
2013-09-11 20:52:00,83.0,71.0,30.03,WNW,295,0.0,0.0,67,0.00,,,0.00,,2013-09-12 00:52:00,
2013-09-11 21:11:00,82.0,71.0,30.03,WNW,295,0.0,0.0,69,0.00,,,0.00,,2013-09-12 01:11:00,
2013-09-11 21:22:00,82.0,71.0,30.03,WNW,295,0.0,0.0,70,0.00,,,0.00,,2013-09-12 01:22:00,
2013-09-11 21:42:00,81.0,70.0,30.04,WNW,295,0.0,0.0,69,0.00,,,0.00,,2013-09-12 01:42:00,
2013-09-11 21:52:00,81.0,69.0,30.04,WNW,295,0.0,0.0,68,0.00,,,0.00,,2013-09-12 01:52:00,
2013-09-11 22:12:00,81.0,69.0,30.03,WNW,295,0.0,0.0,66,0.00,,,0.00,,2013-09-12 02:12:00,
2013-09-11 22:22:00,80.0,67.0,30.03,WNW,295,0.0,0.0,64,0.00,,,0.00,,2013-09-12 02:22:00,
2013-09-11 23:11:00,78.0,66.0,30.01,WNW,295,0.0,0.0,66,0.00,,,0.00,,2013-09-12 03:11:00,
2013-09-11 23:22:00,78.0,67.0,30.01,WNW,295,0.0,0.0,68,0.00,,,0.00,,2013-09-12 03:22:00,
2013-09-11 23:55:00,77.0,67.0,30.01,WNW,295,0.0,0.0,71,0.00,,,0.00,,2013-09-12 03:55:00,